Time;durP1;ratioP1;P1;durP2;ratioP2;P2;SDS_P1;SDS_P2;PMS_P1;PMS_P2;Temp;Humidity;BMP_temperature;BMP_pressure;BME280_temperature;BME280_humidity;BME280_pressure;Samples;Min_cycle;Max_cycle;Signal;HPM_P1;HPM_P2
2023/08/02 00:00:51;;;;;;;4.40;1.90;;;16.90;9.60;;;;;;4996726;28;20447;-81
2023/08/02 00:03:16;;;;;;;3.63;2.30;;;16.80;99.90;;;;;;4992128;28;20445;-81
2023/08/02 00:05:41;;;;;;;4.23;2.43;;;16.80;99.90;;;;;;5011993;28;20288;-81
2023/08/02 00:08:07;;;;;;;5.30;2.60;;;16.70;1.00;;;;;;4990573;28;20294;-82
2023/08/02 00:10:39;;;;;;;9.00;2.77;;;16.70;1.00;;;;;;4992825;28;20189;-81
2023/08/02 00:13:05;;;;;;;5.40;2.63;;;16.60;1.00;;;;;;4996130;28;20273;-81
2023/08/02 00:15:30;;;;;;;6.33;2.40;;;16.60;1.00;;;;;;4991307;28;20542;-81
2023/08/02 00:17:55;;;;;;;6.20;2.17;;;16.50;99.90;;;;;;4997685;28;20213;-81
2023/08/02 00:20:21;;;;;;;7.33;2.27;;;16.50;99.90;;;;;;4994836;28;20183;-81
2023/08/02 00:22:46;;;;;;;5.00;2.60;;;16.50;99.90;;;;;;4990485;28;20209;-81
2023/08/02 00:25:12;;;;;;;4.70;2.70;;;16.50;1.00;;;;;;5010434;28;20177;-81
2023/08/02 00:27:37;;;;;;;5.53;2.60;;;16.40;1.00;;;;;;4998004;28;20215;-82
2023/08/02 00:30:03;;;;;;;4.50;2.47;;;16.40;1.00;;;;;;4993808;28;20187;-80
2023/08/02 00:32:29;;;;;;;5.80;2.67;;;16.40;1.00;;;;;;4994482;28;20257;-81
2023/08/02 00:34:54;;;;;;;5.30;3.03;;;16.40;1.00;;;;;;4995398;28;20937;-82
2023/08/02 00:37:21;;;;;;;3.90;2.57;;;16.40;1.00;;;;;;4992392;28;20212;-81
2023/08/02 00:39:52;;;;;;;6.20;2.80;;;16.30;1.00;;;;;;4987570;28;20208;-81
2023/08/02 00:42:18;;;;;;;5.67;2.97;;;16.30;13.70;;;;;;4995647;28;21009;-81
2023/08/02 00:44:43;;;;;;;11.40;2.73;;;16.30;33.10;;;;;;4989377;28;20445;-82
2023/08/02 00:47:09;;;;;;;9.97;3.40;;;16.30;40.60;;;;;;4989717;28;20471;-81
2023/08/02 00:49:34;;;;;;;9.40;3.73;;;16.30;98.60;;;;;;4995848;28;20186;-81
2023/08/02 00:52:00;;;;;;;6.00;2.90;;;16.30;99.90;;;;;;4993960;28;20258;-82
2023/08/02 00:54:27;;;;;;;13.03;3.50;;;16.30;99.90;;;;;;4992782;28;20192;-81
2023/08/02 00:56:54;;;;;;;4.00;2.43;;;16.30;99.90;;;;;;4994684;28;20584;-81
2023/08/02 00:59:19;;;;;;;7.90;3.50;;;16.30;99.90;;;;;;4994230;28;20517;-81
2023/08/02 01:01:47;;;;;;;5.97;2.90;;;16.30;99.90;;;;;;4995040;28;20468;-81
2023/08/02 01:04:13;;;;;;;5.63;3.00;;;16.40;99.90;;;;;;4991518;28;20266;-81
2023/08/02 01:07:06;;;;;;;4.00;2.80;;;16.40;99.90;;;;;;4991747;28;20531;-81
2023/08/02 01:10:01;;;;;;;5.23;3.23;;;16.50;99.90;;;;;;4979030;28;20884;-81
2023/08/02 01:12:28;;;;;;;8.43;3.10;;;16.50;99.90;;;;;;4991783;28;20851;-81
2023/08/02 01:14:57;;;;;;;7.47;3.20;;;16.50;99.90;;;;;;4994695;28;20467;-82
2023/08/02 01:17:25;;;;;;;10.17;2.90;;;16.50;99.90;;;;;;4996341;28;21036;-82
2023/08/02 01:19:50;;;;;;;8.57;3.20;;;16.50;99.90;;;;;;5001071;28;20427;-82
2023/08/02 01:22:16;;;;;;;6.77;3.63;;;16.50;99.90;;;;;;4998880;28;20478;-82
2023/08/02 01:24:41;;;;;;;9.43;3.37;;;16.50;99.90;;;;;;4996314;28;20192;-82
2023/08/02 01:27:19;;;;;;;8.20;3.20;;;16.60;99.90;;;;;;5001622;28;20224;-82
2023/08/02 01:29:49;;;;;;;5.60;3.50;;;16.60;99.90;;;;;;5000239;28;20192;-82
2023/08/02 01:32:16;;;;;;;8.40;3.40;;;16.60;99.90;;;;;;5001486;28;20449;-82
2023/08/02 01:34:42;;;;;;;6.80;3.30;;;16.60;99.90;;;;;;5000737;28;20526;-82
2023/08/02 01:37:07;;;;;;;11.80;3.70;;;16.60;99.90;;;;;;5001801;28;20496;-82
2023/08/02 01:39:33;;;;;;;10.90;3.23;;;16.60;99.90;;;;;;4997130;28;20200;-82
2023/08/02 01:41:58;;;;;;;6.77;3.03;;;16.60;99.90;;;;;;5002480;28;20221;-82
2023/08/02 01:44:24;;;;;;;8.37;2.90;;;16.60;99.90;;;;;;4996544;28;20201;-82
2023/08/02 01:46:49;;;;;;;8.90;3.20;;;16.60;99.90;;;;;;5001005;28;20182;-82
2023/08/02 01:49:15;;;;;;;12.60;3.17;;;16.70;99.90;;;;;;4990751;28;20186;-81
2023/08/02 01:51:40;;;;;;;6.10;3.10;;;16.70;99.90;;;;;;5001125;28;20221;-82
2023/08/02 01:54:06;;;;;;;7.00;3.00;;;16.70;99.90;;;;;;5002086;28;20200;-82
2023/08/02 01:56:31;;;;;;;12.63;3.83;;;16.70;99.90;;;;;;4998188;28;20659;-82
2023/08/02 01:58:57;;;;;;;6.70;3.37;;;16.70;99.90;;;;;;5000028;28;20268;-82
2023/08/02 02:01:22;;;;;;;9.63;3.40;;;16.70;99.90;;;;;;4999149;28;20219;-82
2023/08/02 02:03:48;;;;;;;10.80;4.23;;;16.80;99.90;;;;;;4998988;28;20193;-81
2023/08/02 02:06:13;;;;;;;8.80;3.40;;;16.80;89.00;;;;;;4992945;28;20268;-82
2023/08/02 02:08:38;;;;;;;11.53;3.60;;;16.80;63.20;;;;;;5002012;28;20229;-81
2023/08/02 02:11:04;;;;;;;10.93;3.20;;;16.80;59.80;;;;;;5004116;28;20180;-82
2023/08/02 02:13:30;;;;;;;7.30;3.13;;;16.80;32.40;;;;;;5000991;28;20211;-82
2023/08/02 02:15:56;;;;;;;9.33;3.33;;;16.80;18.30;;;;;;5003572;28;20455;-82
2023/08/02 02:18:21;;;;;;;7.00;3.13;;;16.80;9.80;;;;;;5002084;28;20198;-82
2023/08/02 02:20:47;;;;;;;7.83;3.03;;;16.80;18.60;;;;;;4997737;28;20199;-82
2023/08/02 02:23:12;;;;;;;6.27;3.17;;;16.80;29.00;;;;;;5005337;28;20217;-82
2023/08/02 02:25:38;;;;;;;5.13;2.97;;;16.80;43.50;;;;;;5003598;28;20211;-82
2023/08/02 02:28:03;;;;;;;6.93;3.30;;;16.80;29.00;;;;;;4999324;28;20213;-82
2023/08/02 02:30:30;;;;;;;6.37;3.10;;;16.90;38.70;;;;;;5002552;28;20192;-82
2023/08/02 02:32:56;;;;;;;5.90;3.30;;;16.90;14.20;;;;;;5003913;28;20195;-82
2023/08/02 02:35:21;;;;;;;6.47;3.10;;;16.90;15.60;;;;;;5002757;28;20444;-82
2023/08/02 02:37:47;;;;;;;6.77;3.20;;;16.90;24.90;;;;;;4999797;28;20216;-82
2023/08/02 02:40:12;;;;;;;7.20;3.47;;;16.90;7.70;;;;;;5001818;28;20201;-82
2023/08/02 02:42:40;;;;;;;8.90;3.40;;;16.90;1.00;;;;;;5001161;28;20222;-82
2023/08/02 02:45:06;;;;;;;9.80;3.50;;;16.90;1.00;;;;;;4995204;28;20177;-82
2023/08/02 02:47:32;;;;;;;9.30;3.80;;;16.90;1.00;;;;;;4996010;28;20554;-82
2023/08/02 02:49:57;;;;;;;7.67;4.03;;;16.80;27.80;;;;;;5002481;28;20447;-82
2023/08/02 02:52:23;;;;;;;12.87;3.80;;;16.80;99.90;;;;;;5004266;28;20643;-82
2023/08/02 02:54:49;;;;;;;9.73;4.80;;;16.80;99.90;;;;;;5000890;28;20246;-82
2023/08/02 02:57:15;;;;;;;5.73;3.43;;;16.80;99.90;;;;;;4999548;28;20203;-82
2023/08/02 02:59:40;;;;;;;13.00;3.70;;;16.80;99.90;;;;;;5001645;28;20193;-82
2023/08/02 03:02:06;;;;;;;7.87;4.37;;;16.70;99.90;;;;;;4996035;28;20460;-82
2023/08/02 03:04:31;;;;;;;9.10;4.00;;;16.70;99.90;;;;;;4999736;28;20267;-81
2023/08/02 03:06:57;;;;;;;11.87;3.70;;;16.70;99.90;;;;;;4992976;28;20232;-81
2023/08/02 03:09:23;;;;;;;8.80;4.00;;;16.70;99.90;;;;;;4998979;28;20834;-82
2023/08/02 03:11:48;;;;;;;7.23;3.97;;;16.60;99.90;;;;;;4998846;28;20198;-82
2023/08/02 03:14:13;;;;;;;8.90;4.40;;;16.60;99.90;;;;;;4999977;28;20197;-82
2023/08/02 03:16:43;;;;;;;8.70;3.20;;;16.60;99.90;;;;;;5001287;28;20196;-81
2023/08/02 03:19:09;;;;;;;7.80;3.13;;;16.60;99.90;;;;;;4996353;28;20278;-82
2023/08/02 03:21:34;;;;;;;7.47;3.20;;;16.60;99.90;;;;;;4999482;28;20479;-81
2023/08/02 03:24:00;;;;;;;7.90;3.07;;;16.60;99.90;;;;;;4999349;28;20472;-82
2023/08/02 03:26:25;;;;;;;13.13;4.20;;;16.60;99.90;;;;;;4999263;28;20192;-82
2023/08/02 03:28:51;;;;;;;13.63;3.93;;;16.60;99.90;;;;;;5001588;28;20206;-82
2023/08/02 03:31:16;;;;;;;5.10;3.13;;;16.60;99.90;;;;;;5001993;28;20245;-82
2023/08/02 03:33:42;;;;;;;5.67;3.07;;;16.50;99.90;;;;;;5004409;28;20200;-82
2023/08/02 03:36:07;;;;;;;6.43;3.20;;;16.50;99.90;;;;;;5001130;28;20222;-82
2023/08/02 03:38:33;;;;;;;6.07;3.17;;;16.50;99.90;;;;;;5000200;28;20252;-82
2023/08/02 03:40:59;;;;;;;5.77;2.70;;;16.50;99.90;;;;;;5002616;28;20178;-81
2023/08/02 03:43:24;;;;;;;7.20;2.70;;;16.50;99.90;;;;;;4995554;28;20181;-82
2023/08/02 03:45:50;;;;;;;5.80;2.70;;;16.50;99.90;;;;;;5003451;28;20209;-82
2023/08/02 03:48:16;;;;;;;5.40;2.60;;;16.50;99.90;;;;;;5003678;28;20834;-82
2023/08/02 03:50:42;;;;;;;5.87;2.50;;;16.50;99.90;;;;;;4997087;28;20206;-82
2023/08/02 03:53:08;;;;;;;4.27;2.23;;;16.50;99.90;;;;;;4999962;28;20443;-82
2023/08/02 03:55:33;;;;;;;5.93;2.33;;;16.50;99.90;;;;;;5002025;28;20434;-82
2023/08/02 03:57:59;;;;;;;5.30;2.87;;;16.50;99.90;;;;;;5000469;28;20207;-82
2023/08/02 04:00:24;;;;;;;7.03;2.40;;;16.50;99.90;;;;;;4999468;28;20188;-81
2023/08/02 04:02:50;;;;;;;3.53;2.17;;;16.50;99.90;;;;;;4991038;28;20302;-82
2023/08/02 04:05:15;;;;;;;5.37;2.10;;;16.50;99.90;;;;;;4986505;28;20332;-82
2023/08/02 04:07:41;;;;;;;3.80;2.17;;;16.50;99.90;;;;;;4996730;28;20213;-81
2023/08/02 04:10:07;;;;;;;4.77;2.53;;;16.50;99.90;;;;;;4986778;28;20198;-81
2023/08/02 04:12:33;;;;;;;4.77;2.70;;;16.50;99.90;;;;;;4999997;28;20196;-82
2023/08/02 04:14:58;;;;;;;5.20;2.37;;;16.50;99.90;;;;;;4998485;28;20448;-82
2023/08/02 04:17:25;;;;;;;8.33;2.40;;;16.50;1.00;;;;;;4991177;28;20282;-82
2023/08/02 04:19:51;;;;;;;3.90;2.20;;;16.50;1.00;;;;;;4998520;28;20659;-82
2023/08/02 04:22:17;;;;;;;3.37;2.50;;;16.40;1.00;;;;;;4999787;28;20474;-82
2023/08/02 04:24:42;;;;;;;4.23;2.10;;;16.40;1.00;;;;;;5001107;28;20185;-82
2023/08/02 04:27:08;;;;;;;4.93;2.67;;;16.30;1.00;;;;;;4997628;28;20208;-82
2023/08/02 04:29:33;;;;;;;4.30;2.50;;;16.30;1.00;;;;;;5004490;28;20187;-82
2023/08/02 04:31:59;;;;;;;4.23;3.20;;;16.30;1.00;;;;;;4996485;28;20400;-82
2023/08/02 04:34:24;;;;;;;4.43;2.30;;;16.30;1.00;;;;;;5001614;28;20270;-81
2023/08/02 04:36:51;;;;;;;7.33;3.17;;;16.30;1.00;;;;;;4998466;28;20180;-81
2023/08/02 04:39:17;;;;;;;7.20;2.80;;;16.30;1.00;;;;;;4998126;28;20236;-82
2023/08/02 04:41:42;;;;;;;7.33;3.03;;;16.30;1.00;;;;;;5000820;28;20464;-82
2023/08/02 04:44:08;;;;;;;5.07;2.60;;;16.30;1.00;;;;;;4998125;28;21000;-81
2023/08/02 04:46:33;;;;;;;5.80;3.10;;;16.30;1.00;;;;;;4999728;28;20200;-82
2023/08/02 04:48:59;;;;;;;10.77;3.00;;;16.20;1.00;;;;;;4999493;28;20202;-82
2023/08/02 04:51:24;;;;;;;8.00;3.33;;;16.20;1.00;;;;;;4998682;28;20191;-82
2023/08/02 04:53:50;;;;;;;9.53;3.20;;;16.20;1.00;;;;;;4998540;28;20213;-82
2023/08/02 04:56:16;;;;;;;4.77;3.83;;;16.30;1.00;;;;;;4999608;28;20189;-82
2023/08/02 04:58:42;;;;;;;7.17;3.60;;;16.30;1.00;;;;;;4998010;28;20207;-82
2023/08/02 05:01:08;;;;;;;5.77;4.10;;;16.30;1.00;;;;;;4995223;28;20976;-82
2023/08/02 05:03:34;;;;;;;7.70;3.60;;;16.30;1.00;;;;;;4999991;28;20455;-82
2023/08/02 05:06:05;;;;;;;23.10;4.43;;;16.30;1.00;;;;;;4999546;28;20240;-82
2023/08/02 05:08:32;;;;;;;10.43;4.60;;;16.30;1.00;;;;;;4995127;28;20459;-82
2023/08/02 05:10:58;;;;;;;7.43;3.70;;;16.20;1.00;;;;;;5000563;28;20467;-82
2023/08/02 05:13:27;;;;;;;8.20;5.03;;;16.20;1.00;;;;;;5000275;28;20453;-83
2023/08/02 05:15:55;;;;;;;11.30;5.27;;;16.10;1.00;;;;;;5001560;28;20190;-83
2023/08/02 05:18:20;;;;;;;18.03;6.20;;;16.10;1.00;;;;;;5000488;28;20466;-82
2023/08/02 05:20:46;;;;;;;10.57;5.87;;;16.00;1.00;;;;;;5000941;28;20485;-82
2023/08/02 05:23:11;;;;;;;11.47;5.40;;;15.90;3.60;;;;;;4999651;28;20259;-83
2023/08/02 05:25:38;;;;;;;13.43;6.10;;;16.00;19.50;;;;;;4993557;28;20285;-83
2023/08/02 05:28:04;;;;;;;10.20;6.30;;;16.00;24.10;;;;;;4992203;28;20203;-83
2023/08/02 05:30:31;;;;;;;9.30;7.20;;;15.80;28.70;;;;;;4996874;28;20442;-83
2023/08/02 05:32:57;;;;;;;12.33;6.80;;;15.80;39.10;;;;;;4996520;28;20430;-83
2023/08/02 05:35:25;;;;;;;11.43;7.33;;;15.90;45.00;;;;;;4997723;28;20532;-83
2023/08/02 05:37:51;;;;;;;11.60;6.37;;;15.90;50.70;;;;;;4997029;28;20503;-83
2023/08/02 05:40:17;;;;;;;10.00;6.57;;;16.00;52.40;;;;;;4997140;28;20439;-83
2023/08/02 05:42:42;;;;;;;14.73;7.50;;;16.00;51.50;;;;;;4993776;28;20474;-83
2023/08/02 05:45:09;;;;;;;11.93;7.50;;;16.00;55.80;;;;;;4997352;28;20235;-83
2023/08/02 05:47:35;;;;;;;17.27;7.70;;;16.00;57.90;;;;;;4996393;28;20204;-83
2023/08/02 05:50:01;;;;;;;18.13;8.27;;;16.00;61.90;;;;;;4998038;28;20475;-83
2023/08/02 05:52:26;;;;;;;17.70;9.00;;;16.00;60.20;;;;;;4998982;28;20840;-83
2023/08/02 05:54:52;;;;;;;11.40;7.70;;;16.10;63.80;;;;;;4997575;28;20199;-82
2023/08/02 05:57:17;;;;;;;16.87;9.47;;;16.00;64.50;;;;;;4991468;28;20217;-83
2023/08/02 05:59:43;;;;;;;18.10;9.53;;;16.10;67.50;;;;;;4991041;28;20271;-83
2023/08/02 06:02:09;;;;;;;13.60;7.87;;;16.10;65.80;;;;;;4995795;28;20212;-83
2023/08/02 06:04:37;;;;;;;12.23;8.70;;;16.10;65.70;;;;;;4998505;28;20893;-84
2023/08/02 06:07:03;;;;;;;17.17;8.50;;;16.20;63.30;;;;;;4998820;28;20225;-83
2023/08/02 06:09:29;;;;;;;14.63;10.13;;;16.20;67.50;;;;;;4995295;28;20447;-83
2023/08/02 06:11:55;;;;;;;17.83;9.77;;;16.20;73.40;;;;;;5010229;28;20439;-83
2023/08/02 06:14:21;;;;;;;14.70;8.93;;;16.20;71.80;;;;;;4994004;28;20672;-83
2023/08/02 06:16:46;;;;;;;16.33;10.27;;;16.20;76.30;;;;;;4989146;28;20478;-84
2023/08/02 06:19:12;;;;;;;19.03;8.67;;;16.20;77.50;;;;;;4992125;28;20662;-83
2023/08/02 06:21:38;;;;;;;14.33;8.67;;;16.30;81.50;;;;;;4994373;28;20211;-84
2023/08/02 06:24:04;;;;;;;13.20;9.37;;;16.30;81.70;;;;;;4994286;28;20434;-83
2023/08/02 06:26:29;;;;;;;18.43;9.67;;;16.30;72.20;;;;;;4995279;28;20696;-83
2023/08/02 06:28:55;;;;;;;17.73;11.00;;;16.20;74.80;;;;;;4994904;28;20218;-83
2023/08/02 06:31:21;;;;;;;15.73;10.03;;;16.20;82.00;;;;;;4996164;28;20188;-83
2023/08/02 06:33:47;;;;;;;20.17;10.20;;;16.20;88.30;;;;;;4993098;28;20465;-82
2023/08/02 06:36:13;;;;;;;16.30;9.07;;;16.20;91.70;;;;;;4994475;28;20621;-83
2023/08/02 06:38:39;;;;;;;16.07;10.37;;;16.30;91.40;;;;;;4995862;28;20278;-83
2023/08/02 06:41:05;;;;;;;16.20;8.70;;;16.20;87.30;;;;;;4993905;28;21091;-82
2023/08/02 06:43:30;;;;;;;17.37;9.60;;;16.40;89.10;;;;;;5001447;28;20450;-84
2023/08/02 06:45:59;;;;;;;13.47;10.93;;;16.40;72.00;;;;;;4995164;28;20514;-84
2023/08/02 06:48:26;;;;;;;14.27;8.83;;;16.40;61.10;;;;;;4994329;28;20212;-83
2023/08/02 06:50:52;;;;;;;15.70;9.30;;;16.60;64.60;;;;;;4994228;28;20440;-83
2023/08/02 06:53:17;;;;;;;12.97;9.60;;;16.60;53.70;;;;;;4991476;28;20469;-83
2023/08/02 06:55:43;;;;;;;13.07;8.57;;;16.70;56.30;;;;;;4998745;28;20443;-83
2023/08/02 06:58:09;;;;;;;13.17;8.90;;;16.80;45.20;;;;;;4994357;28;20207;-83
2023/08/02 07:00:34;;;;;;;18.40;9.10;;;16.80;29.60;;;;;;4992072;28;20544;-83
2023/08/02 07:03:01;;;;;;;12.50;8.47;;;16.90;39.90;;;;;;4996742;28;20935;-83
2023/08/02 07:05:28;;;;;;;12.07;6.87;;;16.80;26.20;;;;;;4997466;28;20555;-84
2023/08/02 07:07:55;;;;;;;10.73;7.90;;;17.00;37.10;;;;;;4977207;28;20516;-83
2023/08/02 07:10:21;;;;;;;13.63;8.00;;;17.30;37.20;;;;;;4999063;28;20452;-84
2023/08/02 07:12:48;;;;;;;13.07;7.47;;;17.40;14.90;;;;;;4996715;28;20434;-83
2023/08/02 07:15:14;;;;;;;12.23;6.60;;;17.70;1.00;;;;;;4999456;28;20426;-84
2023/08/02 07:17:40;;;;;;;8.50;5.17;;;17.90;1.00;;;;;;5003726;28;20784;-83
2023/08/02 07:20:06;;;;;;;8.20;5.83;;;17.80;1.00;;;;;;4989399;28;20469;-83
2023/08/02 07:22:32;;;;;;;7.83;5.40;;;17.70;1.00;;;;;;4992871;28;20483;-84
2023/08/02 07:24:57;;;;;;;7.67;4.37;;;17.60;1.00;;;;;;4992623;28;20448;-84
2023/08/02 07:27:23;;;;;;;7.40;4.67;;;17.90;1.00;;;;;;4990353;28;20231;-84
2023/08/02 07:29:49;;;;;;;7.50;4.20;;;18.60;1.00;;;;;;4980595;28;20195;-84
2023/08/02 07:32:14;;;;;;;6.77;4.30;;;19.40;1.00;;;;;;4989295;28;20192;-84
2023/08/02 07:34:40;;;;;;;8.27;3.33;;;19.50;99.90;;;;;;4991445;28;20982;-84
2023/08/02 07:37:06;;;;;;;4.90;3.50;;;19.70;99.90;;;;;;4993100;28;20288;-84
2023/08/02 07:39:32;;;;;;;4.27;3.30;;;19.90;1.00;;;;;;4992044;28;20185;-83
2023/08/02 07:41:57;;;;;;;4.73;3.10;;;20.00;99.90;;;;;;4985629;28;20216;-83
2023/08/02 07:44:23;;;;;;;6.03;2.90;;;19.90;1.00;;;;;;4991762;28;20255;-83
2023/08/02 07:46:50;;;;;;;4.97;3.40;;;20.00;6.40;;;;;;4990616;28;20186;-84
2023/08/02 07:49:16;;;;;;;4.83;2.83;;;19.90;11.30;;;;;;4992386;28;20177;-83
2023/08/02 07:51:41;;;;;;;4.23;2.80;;;19.70;84.80;;;;;;4991697;28;20992;-83
2023/08/02 07:54:07;;;;;;;3.83;2.30;;;19.70;23.70;;;;;;4992597;28;20529;-84
2023/08/02 07:56:33;;;;;;;3.70;2.77;;;19.60;99.90;;;;;;4990809;28;20203;-83
2023/08/02 07:58:58;;;;;;;3.30;2.57;;;19.60;1.00;;;;;;4988678;28;20219;-84
2023/08/02 08:01:24;;;;;;;2.97;2.30;;;19.60;1.00;;;;;;4987673;28;20199;-84
2023/08/02 08:03:49;;;;;;;3.97;2.30;;;19.60;1.00;;;;;;4990902;28;20291;-85
2023/08/02 08:06:17;;;;;;;7.50;2.60;;;19.60;99.90;;;;;;4993284;28;20224;-84
2023/08/02 08:08:43;;;;;;;3.70;2.10;;;19.40;99.90;;;;;;4993040;28;20844;-84
2023/08/02 08:11:09;;;;;;;2.60;2.27;;;19.40;99.90;;;;;;4993518;28;20442;-84
2023/08/02 08:13:34;;;;;;;4.10;2.30;;;19.30;1.00;;;;;;4990737;28;20225;-85
2023/08/02 08:16:00;;;;;;;4.07;2.37;;;19.20;1.00;;;;;;4993592;28;20187;-85
2023/08/02 08:18:27;;;;;;;4.63;2.27;;;19.20;1.00;;;;;;4996989;28;20234;-85
2023/08/02 08:20:52;;;;;;;3.70;2.30;;;19.30;1.00;;;;;;5000992;28;20952;-85
2023/08/02 08:23:18;;;;;;;2.60;1.83;;;19.30;1.00;;;;;;4999033;28;20492;-84
2023/08/02 08:25:43;;;;;;;3.60;2.00;;;19.50;1.00;;;;;;4999312;28;20187;-84
2023/08/02 08:28:09;;;;;;;2.30;1.67;;;19.60;1.00;;;;;;4991421;28;20216;-84
2023/08/02 08:30:34;;;;;;;3.73;1.07;;;19.70;1.00;;;;;;4994524;28;20183;-84
2023/08/02 08:33:00;;;;;;;1.80;0.87;;;19.80;1.00;;;;;;4996953;28;20200;-85
2023/08/02 08:35:38;;;;;;;1.77;0.80;;;19.90;1.00;;;;;;4996211;28;20196;-84
2023/08/02 08:38:05;;;;;;;4.90;0.80;;;20.00;1.00;;;;;;4999600;28;20227;-84
2023/08/02 08:40:32;;;;;;;1.97;0.70;;;20.00;1.00;;;;;;4996923;28;20497;-83
2023/08/02 08:42:58;;;;;;;1.40;0.70;;;19.80;1.00;;;;;;4995984;28;20492;-85
2023/08/02 08:45:27;;;;;;;1.30;0.70;;;19.90;1.00;;;;;;4998196;28;20450;-85
2023/08/02 08:47:53;;;;;;;1.10;0.50;;;19.90;1.00;;;;;;4993517;28;20462;-85
2023/08/02 08:50:21;;;;;;;1.10;0.60;;;20.00;1.00;;;;;;4999047;28;20431;-85
2023/08/02 08:52:50;;;;;;;2.20;0.63;;;20.10;1.00;;;;;;4995631;28;20239;-85
2023/08/02 08:55:17;;;;;;;1.40;0.50;;;20.10;1.00;;;;;;4995111;28;20898;-85
2023/08/02 08:57:45;;;;;;;1.10;0.67;;;20.10;1.00;;;;;;4993825;28;20481;-85
2023/08/02 09:00:12;;;;;;;1.30;0.57;;;20.10;1.00;;;;;;4995830;28;20439;-85
2023/08/02 09:02:41;;;;;;;1.40;0.50;;;20.10;1.00;;;;;;4993807;28;20542;-85
2023/08/02 09:05:08;;;;;;;1.50;0.70;;;20.40;1.00;;;;;;4986233;28;20443;-84
2023/08/02 09:07:34;;;;;;;1.77;0.53;;;20.90;99.90;;;;;;4981589;28;20469;-85
2023/08/02 09:10:00;;;;;;;2.23;0.50;;;21.30;99.90;;;;;;4992172;28;20442;-85
2023/08/02 09:12:26;;;;;;;1.70;0.60;;;21.90;1.00;;;;;;4994564;28;20446;-85
2023/08/02 09:15:04;;;;;;;1.90;0.47;;;22.30;1.00;;;;;;4985239;28;20194;-85
2023/08/02 09:17:49;;;;;;;1.40;0.53;;;22.60;99.90;;;;;;4986149;28;20207;-85
2023/08/02 09:20:16;;;;;;;2.03;0.90;;;23.20;1.00;;;;;;4991887;28;20433;-85
2023/08/02 09:22:41;;;;;;;2.33;0.40;;;23.60;1.00;;;;;;4996626;28;21033;-85
2023/08/02 09:25:09;;;;;;;1.10;0.50;;;23.50;99.90;;;;;;4996105;28;20429;-85
2023/08/02 09:27:35;;;;;;;1.30;0.57;;;23.20;1.00;;;;;;4992363;28;20597;-84
2023/08/02 09:30:01;;;;;;;0.90;0.40;;;23.00;99.90;;;;;;4996360;28;20432;-84
2023/08/02 09:32:26;;;;;;;1.20;0.47;;;22.70;99.90;;;;;;4993263;28;20208;-85
2023/08/02 09:34:57;;;;;;;1.40;0.80;;;22.50;99.90;;;;;;4996740;28;20187;-85
2023/08/02 09:37:35;;;;;;;1.10;0.50;;;22.30;31.70;;;;;;4990762;28;21006;-85
2023/08/02 09:40:04;;;;;;;2.10;0.40;;;22.20;1.00;;;;;;4995138;28;20442;-85
2023/08/02 09:42:30;;;;;;;4.20;0.60;;;22.10;1.00;;;;;;4994814;28;20474;-84
2023/08/02 09:45:06;;;;;;;3.67;0.50;;;22.00;99.90;;;;;;5011006;28;20434;-85
2023/08/02 09:47:31;;;;;;;0.90;0.40;;;21.90;30.70;;;;;;4990210;28;20459;-85
2023/08/02 09:50:09;;;;;;;1.30;0.50;;;21.90;1.00;;;;;;4990745;28;20459;-85
2023/08/02 09:52:39;;;;;;;1.10;0.40;;;21.80;83.50;;;;;;4992711;28;20452;-85
2023/08/02 09:55:06;;;;;;;1.00;0.50;;;22.10;1.00;;;;;;4990001;28;20855;-85
2023/08/02 09:57:32;;;;;;;1.00;0.50;;;22.80;99.90;;;;;;4985917;28;21385;-84
2023/08/02 10:00:07;;;;;;;0.93;0.47;;;24.50;99.90;;;;;;4991491;28;20434;-84
2023/08/02 10:02:35;;;;;;;1.10;0.50;;;26.70;1.00;;;;;;4987066;28;20509;-84
2023/08/02 10:05:06;;;;;;;1.10;0.50;;;29.00;1.00;;;;;;4991772;28;20883;-85
2023/08/02 10:07:38;;;;;;;0.90;0.40;;;30.50;99.90;;;;;;4989927;28;20470;-84
2023/08/02 10:10:06;;;;;;;1.00;0.50;;;32.60;99.90;;;;;;4987398;28;20447;-84
2023/08/02 10:12:35;;;;;;;1.00;0.40;;;32.90;99.90;;;;;;4979467;28;20518;-84
2023/08/02 10:15:01;;;;;;;1.00;0.40;;;33.00;99.90;;;;;;4985027;28;20445;-84
2023/08/02 10:17:27;;;;;;;1.00;0.50;;;33.50;99.90;;;;;;4981995;28;20574;-84
2023/08/02 10:19:54;;;;;;;1.23;0.57;;;34.50;99.90;;;;;;4990661;28;20537;-84
2023/08/02 10:22:21;;;;;;;2.30;0.50;;;35.40;99.90;;;;;;4989552;28;20219;-84
2023/08/02 10:24:47;;;;;;;0.90;0.40;;;36.70;99.90;;;;;;4989842;28;20493;-84
2023/08/02 10:27:27;;;;;;;1.10;0.47;;;35.90;99.90;;;;;;4987049;28;20458;-84
2023/08/02 10:29:54;;;;;;;1.10;0.40;;;37.00;99.90;;;;;;4989632;28;20257;-85
2023/08/02 10:32:21;;;;;;;1.00;0.50;;;36.10;99.90;;;;;;4989632;28;20525;-84
2023/08/02 10:34:49;;;;;;;2.03;0.50;;;34.80;99.90;;;;;;4990631;28;21011;-84
2023/08/02 10:37:16;;;;;;;1.10;0.50;;;33.50;99.90;;;;;;4988511;28;20469;-84
2023/08/02 10:39:53;;;;;;;1.00;0.50;;;32.40;99.90;;;;;;4987993;28;20482;-83
2023/08/02 10:42:19;;;;;;;1.10;0.70;;;31.10;99.90;;;;;;4994075;28;20466;-84
2023/08/02 10:44:54;;;;;;;2.00;0.50;;;30.10;99.90;;;;;;4987727;28;20508;-84
2023/08/02 10:47:35;;;;;;;1.10;0.60;;;29.10;99.90;;;;;;4995813;28;20747;-84
2023/08/02 10:50:02;;;;;;;1.00;0.50;;;28.70;99.90;;;;;;4993240;28;20427;-84
2023/08/02 10:52:32;;;;;;;1.00;0.50;;;28.40;99.90;;;;;;4990150;28;20470;-83
2023/08/02 10:55:12;;;;;;;1.03;0.50;;;27.80;99.90;;;;;;4988134;28;20438;-84
2023/08/02 10:57:40;;;;;;;2.07;0.60;;;27.20;99.90;;;;;;4991867;28;20533;-82
2023/08/02 11:00:23;;;;;;;1.63;0.70;;;26.60;1.00;;;;;;4991395;28;21017;-83
2023/08/02 11:02:50;;;;;;;1.63;0.90;;;26.00;91.80;;;;;;4995618;28;20462;-83
2023/08/02 11:05:35;;;;;;;1.10;0.70;;;25.60;99.90;;;;;;4993207;28;20884;-83
2023/08/02 11:08:01;;;;;;;1.03;0.60;;;25.20;1.00;;;;;;4992188;28;20477;-83
2023/08/02 11:10:27;;;;;;;1.30;0.73;;;24.90;99.90;;;;;;4997228;28;20438;-83
2023/08/02 11:12:53;;;;;;;1.20;0.60;;;24.90;99.90;;;;;;4983907;28;20206;-83
2023/08/02 11:15:20;;;;;;;1.10;0.60;;;24.90;1.00;;;;;;4995173;28;20197;-83
2023/08/02 11:17:48;;;;;;;1.17;0.73;;;25.00;1.00;;;;;;4996943;28;20485;-84
2023/08/02 11:20:14;;;;;;;1.40;0.70;;;25.10;99.90;;;;;;4995993;28;20430;-84
2023/08/02 11:22:40;;;;;;;1.23;0.60;;;25.40;10.50;;;;;;4989814;28;20419;-84
2023/08/02 11:25:06;;;;;;;2.23;0.70;;;27.00;99.90;;;;;;4995627;28;20481;-84
2023/08/02 11:27:33;;;;;;;1.10;0.60;;;27.50;1.00;;;;;;4993460;28;20214;-84
2023/08/02 11:30:07;;;;;;;1.00;0.60;;;27.60;1.00;;;;;;4986801;28;20530;-84
2023/08/02 11:32:33;;;;;;;1.30;0.70;;;27.20;1.00;;;;;;4993311;28;20458;-84
2023/08/02 11:35:00;;;;;;;1.10;0.60;;;27.00;1.00;;;;;;4987184;28;21036;-84
2023/08/02 11:37:26;;;;;;;1.00;0.60;;;27.40;1.00;;;;;;4983593;28;20833;-83
2023/08/02 11:39:54;;;;;;;1.47;0.57;;;28.60;1.00;;;;;;4985927;28;20447;-84
2023/08/02 11:42:19;;;;;;;1.40;0.57;;;28.70;1.00;;;;;;4993086;28;20461;-84
2023/08/02 11:44:45;;;;;;;1.50;0.70;;;28.70;1.00;;;;;;4984847;28;20849;-84
2023/08/02 11:47:11;;;;;;;1.07;0.60;;;28.60;1.00;;;;;;4992653;28;20203;-84
2023/08/02 11:49:56;;;;;;;1.10;0.70;;;28.50;1.00;;;;;;4994312;28;20183;-85
2023/08/02 11:52:34;;;;;;;2.90;0.60;;;28.10;99.90;;;;;;4992258;28;20212;-84
2023/08/02 11:55:00;;;;;;;1.47;0.70;;;27.50;1.00;;;;;;4998059;28;20441;-84
2023/08/02 11:57:26;;;;;;;1.30;0.60;;;26.70;1.00;;;;;;4999180;28;20478;-84
2023/08/02 11:59:56;;;;;;;5.00;0.80;;;26.20;1.00;;;;;;4999200;28;20442;-84
2023/08/02 12:02:30;;;;;;;10.40;1.67;;;25.80;1.00;;;;;;4998997;28;20529;-83
2023/08/02 12:04:56;;;;;;;2.37;1.00;;;25.30;1.00;;;;;;5000185;28;20456;-83
2023/08/02 12:07:30;;;;;;;5.40;1.60;;;24.70;1.00;;;;;;4995850;28;20469;-82
2023/08/02 12:09:56;;;;;;;2.13;1.47;;;24.00;99.90;;;;;;4999541;28;20481;-82
2023/08/02 12:12:29;;;;;;;1.70;1.43;;;23.70;1.00;;;;;;4999676;28;20467;-81
2023/08/02 12:14:55;;;;;;;2.63;1.53;;;24.70;99.90;;;;;;4995874;28;20436;-82
2023/08/02 12:17:21;;;;;;;1.87;1.03;;;26.00;1.00;;;;;;4997726;28;20988;-81
2023/08/02 12:19:47;;;;;;;1.37;0.90;;;26.60;99.90;;;;;;4992583;28;20453;-82
2023/08/02 12:22:14;;;;;;;2.80;1.03;;;26.40;1.00;;;;;;4993647;28;20442;-82
2023/08/02 12:24:39;;;;;;;1.70;1.20;;;25.90;1.00;;;;;;4994865;28;20451;-82
2023/08/02 12:27:16;;;;;;;1.90;1.20;;;25.60;1.00;;;;;;4993190;28;20815;-83
2023/08/02 12:29:43;;;;;;;2.57;1.37;;;25.10;1.00;;;;;;5000947;28;20219;-82
2023/08/02 12:32:09;;;;;;;3.03;1.77;;;24.70;1.00;;;;;;4994790;28;21058;-82
2023/08/02 12:34:38;;;;;;;5.20;1.50;;;24.30;1.00;;;;;;4987842;28;20865;-83
2023/08/02 12:37:04;;;;;;;3.03;1.50;;;25.50;1.00;;;;;;4995276;28;20458;-83
2023/08/02 12:39:30;;;;;;;2.70;1.50;;;26.80;1.00;;;;;;4996462;28;20439;-83
2023/08/02 12:41:55;;;;;;;6.00;1.80;;;27.20;99.90;;;;;;4988038;28;20449;-82
2023/08/02 12:44:21;;;;;;;3.90;1.60;;;27.50;99.90;;;;;;4992298;28;20661;-83
2023/08/02 12:46:46;;;;;;;5.20;2.37;;;27.20;99.90;;;;;;4985068;28;20192;-83